Accueil
METAR-TAF:

METAR-TAF

Aéroports :

Saint-Brieuc, France

Aéroport de Saint-Brieuc Armor

latitude: 48-32N, longitude: 002-51W, altitude: 138 m

Observation

Le bulletin a été fait il y a 31 minutes, à 21:00 UTC
Vent 4 kt de nord/nord-ouest
Température 3°C
Humidité 81%
Pression 1020 hPa
Visibilité 10 km ou plus
Quelques nuages à une hauteur de 3200 ft

METAR: LFRT 262100Z AUTO 33004KT 9999 FEW032 03/00 Q1020

Heure: 23:31 (21:31 UTC)


TAF: absent

Observations et prévisions météorologiques de plus de 4000 aéroports (messages METAR et TAF).

Les stations disponibles sont représentées par des disques jaunes et rouges sur la carte.

Passer la souris dessus pour voir le nom de la station.

Cliquer dessus pour voir les observations et prévisions météorologiques.

Pour changer de carte: cliquez sur les boutons verts avec une croix noire pour zoomer, sur le bouton vert avec un tiret pour effectuer un zoom arrière, ou sur les flèches vertes pour les cartes adjacentes.


METAR-TAF: